EGQL

RAF Leuchars Airport

St. Andrews, United Kingdom
METAR EGQL 170750Z 11011KT 9999 OVC016 09/06 Q1030 WHT
Observed Flight Rules
Nov-17 @ 07:50 UTC (an hour ago) Marginal Visual Flight Rules
Wind Visibility Clouds
110° at 11 knots 10,000+ meters
  • Overcast at 1,600' AGL
Temperatures Readings
Current 9°C / 48°F
Dewpoint 6°C / 43°F
Humidity 82%
Altimeter 30.41" Hg
Pressure 1030 hPa
Elevation 12
METAR EGQL 170750Z 11011KT 9999 OVC016 09/06 Q1030 WHT
Observed Flight Rules
Nov-17 @ 07:50 UTC
(an hour ago)
MVFR
Wind Visibility
110° at 11 knots 10,000+ meters
Clouds
  • Overcast at 1,600' AGL
Temperature Dewpoint
9°C / 48°F 6°C / 43°F
Humidity Altimeter Pressure
82% 30.41" Hg 1030 hPa